Time;durP1;ratioP1;P1;durP2;ratioP2;P2;SDS_P1;SDS_P2;PMS_P1;PMS_P2;Temp;Humidity;BMP_temperature;BMP_pressure;BME280_temperature;BME280_humidity;BME280_pressure;Samples;Min_cycle;Max_cycle;Signal;HPM_P1;HPM_P2
2023/07/16 00:00:12;;;;;;;7.57;4.60;;;29.20;37.00;;;;;;5073283;28;20201;-56
2023/07/16 00:02:38;;;;;;;6.57;4.87;;;29.20;37.60;;;;;;5071757;28;20176;-56
2023/07/16 00:05:04;;;;;;;9.43;4.30;;;29.10;37.30;;;;;;5073201;28;20414;-54
2023/07/16 00:07:30;;;;;;;8.33;4.73;;;29.00;37.20;;;;;;5073145;28;20415;-56
2023/07/16 00:09:56;;;;;;;8.10;4.60;;;29.00;37.30;;;;;;5072683;28;20522;-56
2023/07/16 00:12:21;;;;;;;6.10;5.37;;;29.00;37.40;;;;;;5072969;28;20629;-56
2023/07/16 00:14:48;;;;;;;12.30;4.50;;;29.00;38.60;;;;;;5024247;28;1419167;-55
2023/07/16 00:17:14;;;;;;;7.53;4.30;;;29.00;38.10;;;;;;5074026;28;20173;-56
2023/07/16 00:19:39;;;;;;;5.30;4.80;;;28.90;37.40;;;;;;5073925;28;20522;-56
2023/07/16 00:22:05;;;;;;;5.73;4.73;;;28.90;37.50;;;;;;5073726;28;20179;-56
2023/07/16 00:24:31;;;;;;;6.43;4.40;;;28.90;36.80;;;;;;5073550;28;20208;-56
2023/07/16 00:26:57;;;;;;;9.70;5.03;;;28.80;36.70;;;;;;5073447;28;20183;-56
2023/07/16 00:29:23;;;;;;;4.97;3.50;;;28.70;37.00;;;;;;5073314;28;20668;-56
2023/07/16 00:31:49;;;;;;;10.20;4.30;;;28.50;37.00;;;;;;5073671;28;20403;-56
2023/07/16 00:34:15;;;;;;;4.53;3.57;;;28.50;37.00;;;;;;5073420;28;20184;-56
2023/07/16 00:36:40;;;;;;;6.23;3.97;;;28.50;37.20;;;;;;5073440;28;20181;-56
2023/07/16 00:39:06;;;;;;;5.60;3.93;;;28.50;37.30;;;;;;5073231;28;20569;-55
2023/07/16 00:41:32;;;;;;;7.30;4.53;;;28.40;37.40;;;;;;5073149;28;20208;-57
2023/07/16 00:43:57;;;;;;;7.37;3.90;;;28.40;37.40;;;;;;5072646;28;20243;-54
2023/07/16 00:46:24;;;;;;;7.37;4.53;;;28.40;37.50;;;;;;5073289;28;20321;-57
2023/07/16 00:48:50;;;;;;;4.03;3.63;;;28.30;37.90;;;;;;5073094;28;20176;-57
2023/07/16 00:51:17;;;;;;;5.83;4.20;;;28.30;37.80;;;;;;5072976;28;20440;-54
2023/07/16 00:53:43;;;;;;;5.33;4.23;;;28.30;38.10;;;;;;5072358;28;20427;-55
2023/07/16 00:56:10;;;;;;;6.13;3.90;;;28.30;38.10;;;;;;5073098;28;20493;-56
2023/07/16 00:58:36;;;;;;;6.50;3.77;;;28.30;38.30;;;;;;5073228;28;20759;-56
2023/07/16 01:01:02;;;;;;;6.17;3.80;;;28.30;38.30;;;;;;5072889;28;20437;-54
2023/07/16 01:03:28;;;;;;;4.60;4.20;;;28.30;38.20;;;;;;5073101;28;20868;-56
2023/07/16 01:06:12;;;;;;;4.77;3.90;;;28.40;38.30;;;;;;5072871;28;20579;-56
2023/07/16 01:08:57;;;;;;;4.70;3.07;;;28.40;38.20;;;;;;5072818;28;20245;-56
2023/07/16 01:11:23;;;;;;;5.57;3.93;;;28.40;38.40;;;;;;5072819;28;20452;-56
2023/07/16 01:13:49;;;;;;;4.53;3.70;;;28.40;38.30;;;;;;5072509;28;20526;-56
2023/07/16 01:16:22;;;;;;;6.73;3.70;;;28.40;38.20;;;;;;5072685;28;20494;-54
2023/07/16 01:18:48;;;;;;;4.47;3.63;;;28.50;38.10;;;;;;5071143;28;20786;-56
2023/07/16 01:21:15;;;;;;;5.27;2.93;;;28.50;38.20;;;;;;5072598;28;20461;-54
2023/07/16 01:24:05;;;;;;;5.57;3.17;;;28.50;38.00;;;;;;5072447;28;20457;-54
2023/07/16 01:26:37;;;;;;;5.40;2.87;;;28.60;37.90;;;;;;5072611;28;20814;-54
2023/07/16 01:29:41;;;;;;;4.10;3.17;;;28.50;38.50;;;;;;5072420;28;20541;-55
2023/07/16 01:32:09;;;;;;;4.60;2.50;;;28.60;37.70;;;;;;5072498;28;20770;-56
2023/07/16 01:34:36;;;;;;;3.33;2.73;;;28.50;37.50;;;;;;5072424;28;20945;-53
2023/07/16 01:37:03;;;;;;;6.80;2.43;;;28.50;37.60;;;;;;5072555;28;20410;-56
2023/07/16 01:39:30;;;;;;;6.90;2.53;;;28.50;37.80;;;;;;5071954;28;20426;-55
2023/07/16 01:41:56;;;;;;;4.37;2.50;;;28.60;37.90;;;;;;5072044;28;20411;-56
2023/07/16 01:44:22;;;;;;;3.80;2.33;;;28.60;37.80;;;;;;5072175;28;20449;-53
2023/07/16 01:46:59;;;;;;;4.20;2.53;;;28.60;37.90;;;;;;5072216;28;20411;-55
2023/07/16 01:49:25;;;;;;;2.93;1.87;;;28.60;37.90;;;;;;5072022;28;20844;-55
2023/07/16 01:51:51;;;;;;;3.93;2.30;;;28.50;38.00;;;;;;5072165;28;20411;-54
2023/07/16 01:54:16;;;;;;;2.97;1.63;;;28.40;38.10;;;;;;5071957;28;20172;-55
2023/07/16 01:56:42;;;;;;;2.93;1.60;;;28.40;38.20;;;;;;5072027;28;20514;-54
2023/07/16 01:59:08;;;;;;;2.67;1.90;;;28.30;38.30;;;;;;5071860;28;20189;-55
2023/07/16 02:01:33;;;;;;;4.97;2.00;;;28.30;38.60;;;;;;5072168;28;20207;-54
2023/07/16 02:03:59;;;;;;;5.33;1.80;;;28.20;38.60;;;;;;5071929;28;20299;-56
2023/07/16 02:06:25;;;;;;;3.70;1.37;;;28.20;38.80;;;;;;5071964;28;20250;-56
2023/07/16 02:08:51;;;;;;;2.90;1.40;;;28.10;39.10;;;;;;5071925;28;20207;-53
2023/07/16 02:11:16;;;;;;;4.23;2.03;;;28.10;39.40;;;;;;5071994;28;20559;-54
2023/07/16 02:13:42;;;;;;;4.17;1.70;;;28.10;39.70;;;;;;5071709;28;20657;-54
2023/07/16 02:16:08;;;;;;;2.50;1.83;;;28.00;40.00;;;;;;5071893;28;20188;-52
2023/07/16 02:18:33;;;;;;;5.07;2.30;;;28.00;40.80;;;;;;5072027;28;20177;-55
2023/07/16 02:20:59;;;;;;;3.67;2.30;;;27.90;41.40;;;;;;5070215;28;20576;-55
2023/07/16 02:23:25;;;;;;;7.93;2.27;;;27.90;42.10;;;;;;5071351;28;20204;-54
2023/07/16 02:25:50;;;;;;;7.50;2.23;;;27.80;42.60;;;;;;5072015;28;20184;-54
2023/07/16 02:28:16;;;;;;;4.33;2.60;;;27.80;43.20;;;;;;5071340;28;20175;-53
2023/07/16 02:30:42;;;;;;;3.60;1.83;;;27.60;43.80;;;;;;5071277;28;20188;-55
2023/07/16 02:33:08;;;;;;;5.60;2.27;;;27.50;44.00;;;;;;5071393;28;20537;-55
2023/07/16 02:35:34;;;;;;;4.23;2.23;;;27.40;44.50;;;;;;5071418;28;20414;-53
2023/07/16 02:37:59;;;;;;;2.90;1.87;;;27.40;44.80;;;;;;5071273;28;20175;-54
2023/07/16 02:40:25;;;;;;;4.13;1.90;;;27.30;45.00;;;;;;5071212;28;20823;-54
2023/07/16 02:42:51;;;;;;;5.17;2.27;;;27.30;44.80;;;;;;5071092;28;20210;-53
2023/07/16 02:45:17;;;;;;;6.23;2.73;;;27.20;45.20;;;;;;5071386;28;20260;-54
2023/07/16 02:47:42;;;;;;;7.70;3.53;;;27.10;45.50;;;;;;5071258;28;20181;-53
2023/07/16 02:50:09;;;;;;;3.47;2.10;;;27.00;46.10;;;;;;5070988;28;20196;-55
2023/07/16 02:52:34;;;;;;;5.07;2.70;;;27.00;46.50;;;;;;5070978;28;20620;-54
2023/07/16 02:55:00;;;;;;;3.60;2.23;;;26.80;46.30;;;;;;5071202;28;20506;-55
2023/07/16 02:57:26;;;;;;;5.33;2.90;;;26.70;46.50;;;;;;5071448;28;20269;-54
2023/07/16 02:59:52;;;;;;;7.20;3.10;;;26.70;46.90;;;;;;5071051;28;20722;-53
2023/07/16 03:02:17;;;;;;;3.70;2.43;;;26.70;47.10;;;;;;5071504;28;20251;-53
2023/07/16 03:04:43;;;;;;;4.37;2.03;;;26.60;47.20;;;;;;5071331;28;20662;-53
2023/07/16 03:07:09;;;;;;;4.80;1.87;;;26.60;47.30;;;;;;5070608;28;20185;-51
2023/07/16 03:09:34;;;;;;;3.70;2.10;;;26.60;47.40;;;;;;5074953;28;20287;-53
2023/07/16 03:12:00;;;;;;;3.80;2.30;;;26.40;47.60;;;;;;5074998;28;20636;-54
2023/07/16 03:14:26;;;;;;;3.40;2.40;;;26.40;47.90;;;;;;5074879;28;20203;-51
2023/07/16 03:16:51;;;;;;;2.50;1.60;;;26.40;47.70;;;;;;5075148;28;20181;-54
2023/07/16 03:19:17;;;;;;;5.73;2.37;;;26.40;48.00;;;;;;5074528;28;20670;-54
2023/07/16 03:21:43;;;;;;;3.20;2.07;;;26.40;48.50;;;;;;5074559;28;20271;-54
2023/07/16 03:24:09;;;;;;;6.07;2.37;;;26.40;48.80;;;;;;5073279;28;20208;-54
2023/07/16 03:26:34;;;;;;;3.83;2.80;;;26.50;48.90;;;;;;5074763;28;20569;-54
2023/07/16 03:29:00;;;;;;;6.47;2.57;;;26.50;49.00;;;;;;5074350;28;20176;-51
2023/07/16 03:31:26;;;;;;;8.60;2.63;;;26.50;49.10;;;;;;5073269;28;20608;-54
2023/07/16 03:33:52;;;;;;;4.70;2.60;;;26.50;48.90;;;;;;5073847;28;20654;-53
2023/07/16 03:36:18;;;;;;;4.00;1.97;;;26.50;48.80;;;;;;5074456;28;20579;-56
2023/07/16 03:38:44;;;;;;;3.00;2.00;;;26.60;48.40;;;;;;5074545;28;20176;-53
2023/07/16 03:41:10;;;;;;;4.40;2.40;;;26.50;48.00;;;;;;5074325;28;20435;-53
2023/07/16 03:43:36;;;;;;;4.23;2.23;;;26.50;48.50;;;;;;5074391;28;20249;-53
2023/07/16 03:46:01;;;;;;;4.87;2.50;;;26.50;48.60;;;;;;5074672;28;20645;-54
2023/07/16 03:48:27;;;;;;;4.63;2.73;;;26.40;48.90;;;;;;5074323;28;20211;-54
2023/07/16 03:50:53;;;;;;;6.30;2.80;;;26.50;49.10;;;;;;5073981;28;20190;-53
2023/07/16 03:53:18;;;;;;;4.50;2.50;;;26.50;49.20;;;;;;5073006;28;20215;-54
2023/07/16 03:55:44;;;;;;;5.13;2.60;;;26.50;48.90;;;;;;5074434;28;20759;-53
2023/07/16 03:58:10;;;;;;;4.60;2.40;;;26.50;48.60;;;;;;5074252;28;20177;-53
2023/07/16 04:00:36;;;;;;;6.40;2.07;;;26.40;49.10;;;;;;5073922;28;20699;-52
2023/07/16 04:03:01;;;;;;;4.70;2.20;;;26.40;48.90;;;;;;5073980;28;20204;-53
2023/07/16 04:05:27;;;;;;;3.60;2.17;;;26.30;49.20;;;;;;5072574;28;20702;-53
2023/07/16 04:07:53;;;;;;;3.00;2.00;;;26.40;49.10;;;;;;5074193;28;20226;-53
2023/07/16 04:10:18;;;;;;;5.30;2.37;;;26.30;49.10;;;;;;5073535;28;20199;-52
2023/07/16 04:12:44;;;;;;;3.37;2.50;;;26.30;49.00;;;;;;5073792;28;20421;-55
2023/07/16 04:15:10;;;;;;;2.97;1.90;;;26.30;49.10;;;;;;5073909;28;20179;-53
2023/07/16 04:17:36;;;;;;;5.97;2.33;;;26.20;49.30;;;;;;5073523;28;20184;-52
2023/07/16 04:20:03;;;;;;;4.10;2.20;;;26.20;49.30;;;;;;5072455;28;20431;-55
2023/07/16 04:22:28;;;;;;;3.30;2.47;;;26.20;49.60;;;;;;5073913;28;20410;-52
2023/07/16 04:24:54;;;;;;;4.10;2.67;;;26.10;49.70;;;;;;5073513;28;20986;-55
2023/07/16 04:27:20;;;;;;;2.83;2.00;;;26.20;49.40;;;;;;5073756;28;20183;-52
2023/07/16 04:29:45;;;;;;;4.30;2.70;;;26.10;49.70;;;;;;5073287;28;20234;-53
2023/07/16 04:32:11;;;;;;;5.93;2.43;;;26.10;50.30;;;;;;5073453;28;20668;-54
2023/07/16 04:34:37;;;;;;;4.00;2.27;;;26.20;50.20;;;;;;5072137;28;20176;-54
2023/07/16 04:37:03;;;;;;;4.27;2.37;;;26.20;49.80;;;;;;5073337;28;20208;-53
2023/07/16 04:39:28;;;;;;;4.70;2.40;;;26.20;50.00;;;;;;5073129;28;20192;-55
2023/07/16 04:41:54;;;;;;;3.17;2.20;;;26.10;49.70;;;;;;5073518;28;20694;-53
2023/07/16 04:44:20;;;;;;;4.50;2.37;;;26.20;49.60;;;;;;5073152;28;20650;-55
2023/07/16 04:46:45;;;;;;;3.53;2.27;;;26.20;49.50;;;;;;5073196;28;20267;-55
2023/07/16 04:49:11;;;;;;;3.40;2.17;;;26.20;49.50;;;;;;5072946;28;20192;-52
2023/07/16 04:51:37;;;;;;;4.90;2.53;;;26.20;49.40;;;;;;5073198;28;20847;-52
2023/07/16 04:54:03;;;;;;;4.13;2.60;;;26.20;49.70;;;;;;5073287;28;20259;-55
2023/07/16 04:56:29;;;;;;;3.47;2.47;;;26.20;50.20;;;;;;5072956;28;20188;-53
2023/07/16 04:58:54;;;;;;;5.13;2.87;;;26.20;50.00;;;;;;5072977;28;20460;-52
2023/07/16 05:01:20;;;;;;;4.37;2.50;;;26.20;49.70;;;;;;5072738;28;20184;-55
2023/07/16 05:03:46;;;;;;;2.87;2.57;;;26.20;50.20;;;;;;5072774;28;20334;-52
2023/07/16 05:06:12;;;;;;;2.67;2.20;;;26.20;50.20;;;;;;5072838;28;20215;-52
2023/07/16 05:08:37;;;;;;;4.07;2.30;;;26.10;50.00;;;;;;5072990;28;20605;-53
2023/07/16 05:11:03;;;;;;;4.73;2.30;;;26.10;50.20;;;;;;5072373;28;20469;-52
2023/07/16 05:13:29;;;;;;;2.77;2.10;;;26.00;50.30;;;;;;5072659;28;20273;-54
2023/07/16 05:15:55;;;;;;;6.00;2.73;;;26.00;50.40;;;;;;5072571;28;20437;-55
2023/07/16 05:18:22;;;;;;;2.80;1.90;;;25.90;49.90;;;;;;5072514;28;20185;-52
2023/07/16 05:20:48;;;;;;;4.53;2.53;;;25.90;49.90;;;;;;5072233;28;20192;-51
2023/07/16 05:23:14;;;;;;;3.23;2.33;;;25.90;49.90;;;;;;5072382;28;20500;-54
2023/07/16 05:25:47;;;;;;;3.97;2.40;;;25.80;49.60;;;;;;5072612;28;20417;-52
2023/07/16 05:28:13;;;;;;;3.03;2.00;;;25.80;49.70;;;;;;5072509;28;20438;-55
2023/07/16 05:30:39;;;;;;;3.60;2.20;;;25.80;50.10;;;;;;5071669;28;20473;-52
2023/07/16 05:33:04;;;;;;;2.90;2.10;;;25.80;50.60;;;;;;5072252;28;20177;-54
2023/07/16 05:35:30;;;;;;;3.47;2.20;;;25.90;50.80;;;;;;5072636;28;20187;-53
2023/07/16 05:37:56;;;;;;;7.53;2.90;;;25.90;50.60;;;;;;5072313;28;20229;-52
2023/07/16 05:40:21;;;;;;;3.17;2.57;;;25.90;51.00;;;;;;5071976;28;20253;-52
2023/07/16 05:42:47;;;;;;;4.07;2.30;;;25.80;51.40;;;;;;5072181;28;20176;-53
2023/07/16 05:45:13;;;;;;;3.83;2.90;;;25.80;51.60;;;;;;5072201;28;20165;-52
2023/07/16 05:47:39;;;;;;;3.13;2.50;;;25.80;51.90;;;;;;5072124;28;20180;-55
2023/07/16 05:50:05;;;;;;;4.00;2.77;;;25.90;52.00;;;;;;5071875;28;20224;-52
2023/07/16 05:52:31;;;;;;;7.37;2.70;;;25.90;52.40;;;;;;5070850;28;20192;-54
2023/07/16 05:54:57;;;;;;;4.03;2.80;;;26.00;52.70;;;;;;5072399;28;20897;-52
2023/07/16 05:57:23;;;;;;;3.40;2.70;;;26.10;52.80;;;;;;5072073;28;20541;-55
2023/07/16 05:59:48;;;;;;;3.30;2.50;;;26.10;53.20;;;;;;5071696;28;20230;-55
2023/07/16 06:02:14;;;;;;;5.60;2.33;;;26.20;53.20;;;;;;5072320;28;20204;-52
2023/07/16 06:04:40;;;;;;;2.40;2.10;;;26.30;53.10;;;;;;5071939;28;20276;-53
2023/07/16 06:07:06;;;;;;;7.47;2.67;;;26.40;53.00;;;;;;5072010;28;20164;-52
2023/07/16 06:09:33;;;;;;;3.60;2.30;;;26.50;52.50;;;;;;5071697;28;20194;-52
2023/07/16 06:11:59;;;;;;;4.53;2.63;;;26.60;52.70;;;;;;5072222;28;20407;-52
2023/07/16 06:14:25;;;;;;;2.87;2.40;;;26.80;52.30;;;;;;5071793;28;20855;-55
2023/07/16 06:16:50;;;;;;;3.80;2.40;;;27.00;52.80;;;;;;5072183;28;20183;-52
2023/07/16 06:19:16;;;;;;;3.40;2.80;;;27.20;52.50;;;;;;5071864;28;20684;-52
2023/07/16 06:21:42;;;;;;;3.00;1.80;;;27.40;52.30;;;;;;5072136;28;20537;-55
2023/07/16 06:24:08;;;;;;;4.57;2.13;;;27.60;51.70;;;;;;5071863;28;20238;-52
2023/07/16 06:26:33;;;;;;;3.83;2.20;;;27.60;50.30;;;;;;5070595;28;20176;-52
2023/07/16 06:28:59;;;;;;;2.93;2.20;;;27.70;49.70;;;;;;5071974;28;20172;-55
2023/07/16 06:31:25;;;;;;;3.03;2.43;;;27.60;48.90;;;;;;5071402;28;20172;-52
2023/07/16 06:33:50;;;;;;;4.03;2.60;;;27.70;49.60;;;;;;5072049;28;20636;-53
2023/07/16 06:36:16;;;;;;;6.60;2.63;;;27.70;49.30;;;;;;5071943;28;20172;-54
2023/07/16 06:38:42;;;;;;;3.73;2.33;;;27.80;49.00;;;;;;5071730;28;20251;-52
2023/07/16 06:41:08;;;;;;;5.33;3.27;;;27.80;49.40;;;;;;5071464;28;20468;-53
2023/07/16 06:43:33;;;;;;;3.60;3.07;;;27.90;49.50;;;;;;5075322;28;20200;-54
2023/07/16 06:45:59;;;;;;;4.50;2.47;;;28.00;48.90;;;;;;5075465;28;20168;-52
2023/07/16 06:48:25;;;;;;;3.20;2.20;;;28.00;49.50;;;;;;5075460;28;20267;-54
2023/07/16 06:50:51;;;;;;;2.70;1.90;;;28.10;49.70;;;;;;5075463;28;20204;-53
2023/07/16 06:53:17;;;;;;;3.47;2.17;;;28.20;48.60;;;;;;5075676;28;20265;-51
2023/07/16 06:55:42;;;;;;;3.43;2.37;;;28.10;47.80;;;;;;5075312;28;20450;-54
2023/07/16 06:58:13;;;;;;;2.57;2.03;;;28.10;47.70;;;;;;5075271;28;20253;-51
2023/07/16 07:00:39;;;;;;;3.50;2.30;;;28.20;48.40;;;;;;5074904;28;20200;-54
2023/07/16 07:03:05;;;;;;;3.00;2.00;;;28.20;47.20;;;;;;5075118;28;20512;-53
2023/07/16 07:05:30;;;;;;;2.30;1.80;;;28.20;46.60;;;;;;5075228;28;20180;-53
2023/07/16 07:07:56;;;;;;;2.90;2.00;;;28.20;46.40;;;;;;5075277;28;20575;-54
2023/07/16 07:10:22;;;;;;;4.20;2.30;;;28.20;45.80;;;;;;5074722;28;20189;-53
2023/07/16 07:12:48;;;;;;;2.60;1.90;;;28.30;46.10;;;;;;5074944;28;20193;-52
2023/07/16 07:15:13;;;;;;;2.90;1.93;;;28.40;46.60;;;;;;5073672;28;20547;-55
2023/07/16 07:17:42;;;;;;;5.93;2.53;;;28.50;45.00;;;;;;5074887;28;20173;-54
2023/07/16 07:20:08;;;;;;;3.20;2.00;;;28.60;45.40;;;;;;5074609;28;20461;-52
2023/07/16 07:22:34;;;;;;;3.03;1.90;;;28.60;44.50;;;;;;5075108;28;20411;-52
2023/07/16 07:25:00;;;;;;;2.70;2.00;;;28.70;43.10;;;;;;5074713;28;20828;-51
2023/07/16 07:27:26;;;;;;;3.30;2.10;;;28.70;42.50;;;;;;5074707;28;20446;-52
2023/07/16 07:29:52;;;;;;;2.97;1.93;;;28.80;42.10;;;;;;5074369;28;20200;-54
2023/07/16 07:32:21;;;;;;;4.87;2.67;;;28.80;41.40;;;;;;5074852;28;20463;-52
2023/07/16 07:34:47;;;;;;;5.00;2.90;;;28.80;41.80;;;;;;5074604;28;20207;-52
2023/07/16 07:37:13;;;;;;;4.00;2.17;;;28.90;40.80;;;;;;5074750;28;20415;-54
2023/07/16 07:39:38;;;;;;;3.63;1.97;;;28.80;39.40;;;;;;5074511;28;20446;-52
2023/07/16 07:42:05;;;;;;;3.00;2.07;;;28.80;39.50;;;;;;5074442;28;20911;-52
2023/07/16 07:44:30;;;;;;;2.47;2.03;;;28.80;40.20;;;;;;5074611;28;20193;-54
2023/07/16 07:46:56;;;;;;;3.60;2.10;;;28.80;40.20;;;;;;5074688;28;20415;-51
2023/07/16 07:49:22;;;;;;;5.10;1.73;;;28.80;36.80;;;;;;5074085;28;20673;-51
2023/07/16 07:51:49;;;;;;;5.17;2.50;;;28.80;35.70;;;;;;5074252;28;20181;-54
2023/07/16 07:54:15;;;;;;;7.37;1.87;;;28.70;37.00;;;;;;5073918;28;20417;-53
2023/07/16 07:56:41;;;;;;;4.63;2.00;;;28.60;37.00;;;;;;5074137;28;20418;-51
2023/07/16 07:59:07;;;;;;;3.57;2.20;;;28.60;36.80;;;;;;5074225;28;20415;-54
2023/07/16 08:01:33;;;;;;;5.13;2.67;;;28.50;35.80;;;;;;5074312;28;20596;-55
2023/07/16 08:03:59;;;;;;;3.13;1.93;;;28.40;36.30;;;;;;5074017;28;20481;-54
2023/07/16 08:06:26;;;;;;;2.43;1.90;;;28.30;36.50;;;;;;5074112;28;20175;-53
2023/07/16 08:08:51;;;;;;;4.80;3.20;;;28.20;36.80;;;;;;5073889;28;20196;-55
2023/07/16 08:11:17;;;;;;;4.27;2.23;;;28.30;37.40;;;;;;5073603;28;20842;-53
2023/07/16 08:13:43;;;;;;;4.60;2.67;;;28.30;37.80;;;;;;5073729;28;20435;-55
2023/07/16 08:16:09;;;;;;;3.63;2.27;;;28.40;38.30;;;;;;5074137;28;20200;-53
2023/07/16 08:18:35;;;;;;;4.00;2.47;;;28.50;38.70;;;;;;5073755;28;20637;-53
2023/07/16 08:21:01;;;;;;;6.13;2.30;;;28.60;37.70;;;;;;5073567;28;20429;-54
2023/07/16 08:23:26;;;;;;;3.13;2.57;;;28.60;37.80;;;;;;5073496;28;20469;-53
2023/07/16 08:25:52;;;;;;;3.30;2.30;;;28.60;37.70;;;;;;5073444;28;20271;-53
2023/07/16 08:28:18;;;;;;;5.30;3.00;;;28.60;38.00;;;;;;5073841;28;20211;-51
2023/07/16 08:30:47;;;;;;;4.90;2.50;;;28.60;36.60;;;;;;5073258;28;20657;-55
2023/07/16 08:33:14;;;;;;;4.50;2.43;;;28.50;36.80;;;;;;5073472;28;20267;-52
2023/07/16 08:35:40;;;;;;;3.97;2.43;;;28.50;36.80;;;;;;5073705;28;20505;-55
2023/07/16 08:38:09;;;;;;;6.00;2.30;;;28.60;37.20;;;;;;5073436;28;20461;-55
2023/07/16 08:40:36;;;;;;;3.23;2.13;;;28.60;36.30;;;;;;5072777;28;20431;-53
2023/07/16 08:43:05;;;;;;;4.10;2.67;;;28.60;36.40;;;;;;5073165;28;20473;-51
2023/07/16 08:45:34;;;;;;;4.40;2.40;;;28.70;36.20;;;;;;5071781;28;20911;-54
2023/07/16 08:48:00;;;;;;;3.27;2.20;;;28.80;36.90;;;;;;5072402;28;20899;-53
2023/07/16 08:50:27;;;;;;;3.50;2.43;;;28.80;36.20;;;;;;5071218;28;20442;-54
2023/07/16 08:52:53;;;;;;;6.83;3.10;;;28.80;34.80;;;;;;5073053;28;20176;-55
2023/07/16 08:55:19;;;;;;;4.87;2.60;;;28.80;35.40;;;;;;5072639;28;20775;-55
2023/07/16 08:57:45;;;;;;;3.50;2.10;;;28.70;35.20;;;;;;5072913;28;20403;-53
2023/07/16 09:00:12;;;;;;;4.20;2.70;;;28.80;35.50;;;;;;5072621;28;20242;-53
2023/07/16 09:02:38;;;;;;;5.30;2.73;;;28.80;36.00;;;;;;5072843;28;20437;-54
2023/07/16 09:05:05;;;;;;;7.00;3.03;;;28.80;34.40;;;;;;5069283;28;20490;-54
2023/07/16 09:07:30;;;;;;;3.77;2.53;;;28.80;34.40;;;;;;5072690;28;20909;-54
2023/07/16 09:10:00;;;;;;;6.70;3.10;;;28.80;35.00;;;;;;5072412;28;20538;-56
2023/07/16 09:12:26;;;;;;;5.03;2.80;;;28.80;35.90;;;;;;5072637;28;20187;-52
2023/07/16 09:14:52;;;;;;;7.27;3.17;;;28.90;36.90;;;;;;5072535;28;20470;-52
2023/07/16 09:17:23;;;;;;;3.90;1.93;;;28.90;35.60;;;;;;5072643;28;20411;-55
2023/07/16 09:19:48;;;;;;;2.60;2.03;;;28.90;35.40;;;;;;5072302;28;20430;-52
2023/07/16 09:22:20;;;;;;;3.57;2.67;;;28.90;35.30;;;;;;5072431;28;20469;-52
2023/07/16 09:24:47;;;;;;;6.03;2.23;;;28.90;34.70;;;;;;5072399;28;20200;-54
2023/07/16 09:27:13;;;;;;;3.90;2.00;;;28.90;34.40;;;;;;5071230;28;20446;-53
2023/07/16 09:29:39;;;;;;;6.53;2.37;;;28.90;33.90;;;;;;5072225;28;20499;-52
2023/07/16 09:32:05;;;;;;;3.80;3.00;;;29.00;35.30;;;;;;5072321;28;20915;-53
2023/07/16 09:34:32;;;;;;;4.17;2.50;;;29.10;36.10;;;;;;5072406;28;20403;-55
2023/07/16 09:36:59;;;;;;;3.90;2.50;;;29.30;34.70;;;;;;5072587;28;20415;-52
2023/07/16 09:39:25;;;;;;;3.60;2.80;;;29.60;35.20;;;;;;5071845;28;20545;-52
2023/07/16 09:41:51;;;;;;;3.40;2.77;;;29.80;35.70;;;;;;5072591;28;20465;-54
2023/07/16 09:44:18;;;;;;;4.40;3.03;;;29.90;34.10;;;;;;5072263;28;20545;-53
2023/07/16 09:46:45;;;;;;;4.87;2.40;;;30.00;34.80;;;;;;5072270;28;20410;-53
2023/07/16 09:49:11;;;;;;;4.50;3.07;;;29.90;34.50;;;;;;5071901;28;20422;-53
2023/07/16 09:51:39;;;;;;;11.80;3.00;;;29.80;32.50;;;;;;5071980;28;20837;-53
2023/07/16 09:54:05;;;;;;;6.03;2.73;;;29.70;32.40;;;;;;5072086;28;20416;-52
2023/07/16 09:56:53;;;;;;;3.37;2.40;;;29.70;31.00;;;;;;5072254;28;20427;-54
2023/07/16 09:59:23;;;;;;;4.90;2.13;;;29.80;31.40;;;;;;5071817;28;20509;-54
2023/07/16 10:01:50;;;;;;;6.80;2.90;;;29.80;31.00;;;;;;5071842;28;20456;-51
2023/07/16 10:04:17;;;;;;;7.43;2.67;;;29.90;31.50;;;;;;5072164;28;20465;-54
2023/07/16 10:06:58;;;;;;;5.50;2.40;;;30.20;29.60;;;;;;5072233;28;20407;-53
2023/07/16 10:09:33;;;;;;;4.73;2.57;;;30.20;30.70;;;;;;5071585;28;20488;-55
2023/07/16 10:12:19;;;;;;;5.70;3.03;;;30.30;31.60;;;;;;5071899;28;20923;-52
2023/07/16 10:14:48;;;;;;;5.87;2.30;;;30.50;29.80;;;;;;5071860;28;20434;-55
2023/07/16 10:17:19;;;;;;;5.53;2.60;;;30.50;29.40;;;;;;5075217;28;20744;-52
2023/07/16 10:20:12;;;;;;;3.40;2.13;;;30.50;28.60;;;;;;5075778;28;20922;-53
2023/07/16 10:22:43;;;;;;;5.93;2.67;;;30.40;29.90;;;;;;5075875;28;20414;-54
2023/07/16 10:25:10;;;;;;;3.33;1.80;;;30.30;29.80;;;;;;5075991;28;20888;-53
2023/07/16 10:27:36;;;;;;;5.30;2.87;;;30.20;28.60;;;;;;5076191;28;20506;-53
2023/07/16 10:30:04;;;;;;;5.10;2.50;;;30.20;28.70;;;;;;5075531;28;20431;-55
2023/07/16 10:32:32;;;;;;;5.00;2.50;;;30.30;29.10;;;;;;5075823;28;20410;-55
2023/07/16 10:34:58;;;;;;;3.37;2.27;;;30.50;28.40;;;;;;5075783;28;20415;-53
2023/07/16 10:37:25;;;;;;;5.07;2.67;;;30.70;28.50;;;;;;5075678;28;20493;-54
2023/07/16 10:39:53;;;;;;;4.70;2.00;;;30.90;29.20;;;;;;5075382;28;20918;-56
2023/07/16 10:42:20;;;;;;;3.73;2.53;;;31.10;28.90;;;;;;5075904;28;20499;-53
2023/07/16 10:44:50;;;;;;;5.90;3.13;;;31.10;28.30;;;;;;5075538;28;20463;-54
2023/07/16 10:47:24;;;;;;;4.17;2.10;;;31.20;29.20;;;;;;5075508;28;20417;-54
2023/07/16 10:49:54;;;;;;;3.13;1.87;;;31.30;30.00;;;;;;5075030;28;20434;-52
2023/07/16 10:52:24;;;;;;;3.00;2.20;;;31.40;29.00;;;;;;5074215;28;20435;-55
2023/07/16 10:54:54;;;;;;;3.80;2.13;;;31.50;27.70;;;;;;5075617;28;20794;-53
2023/07/16 10:57:20;;;;;;;3.30;2.23;;;31.60;29.00;;;;;;5075471;28;20414;-55
2023/07/16 10:59:47;;;;;;;6.07;2.50;;;31.60;26.50;;;;;;5075008;28;20487;-53
2023/07/16 11:02:15;;;;;;;9.80;2.57;;;31.60;28.10;;;;;;5075054;28;20964;-52
2023/07/16 11:04:42;;;;;;;6.20;2.33;;;31.60;27.60;;;;;;5075375;28;20818;-54
2023/07/16 11:07:08;;;;;;;4.50;3.00;;;31.50;27.10;;;;;;5075083;28;20418;-55
2023/07/16 11:09:41;;;;;;;6.00;2.87;;;31.60;28.80;;;;;;5074903;28;20428;-52
2023/07/16 11:12:08;;;;;;;3.97;2.80;;;31.50;28.10;;;;;;5075058;28;20910;-54
2023/07/16 11:14:35;;;;;;;4.30;2.87;;;31.50;29.00;;;;;;5074785;28;20418;-54
2023/07/16 11:17:10;;;;;;;7.23;2.43;;;31.60;29.10;;;;;;5074920;28;20887;-53
2023/07/16 11:19:37;;;;;;;3.17;2.57;;;31.70;29.30;;;;;;5074764;28;20428;-55
2023/07/16 11:22:04;;;;;;;3.77;2.57;;;31.90;29.60;;;;;;5074989;28;20394;-53
2023/07/16 11:24:56;;;;;;;5.93;2.87;;;31.90;26.50;;;;;;5072183;28;20544;-55
2023/07/16 11:27:26;;;;;;;5.40;3.00;;;31.80;26.90;;;;;;5067537;28;20422;-53
2023/07/16 11:29:55;;;;;;;4.37;2.63;;;31.70;26.70;;;;;;5074460;28;20945;-52
2023/07/16 11:32:30;;;;;;;4.20;2.40;;;31.50;28.30;;;;;;5074626;28;20914;-55
2023/07/16 11:34:58;;;;;;;6.17;2.97;;;31.40;28.60;;;;;;5074477;28;20921;-52
2023/07/16 11:37:28;;;;;;;5.47;3.50;;;31.30;29.70;;;;;;5074576;28;20417;-54
2023/07/16 11:40:06;;;;;;;4.70;3.33;;;31.20;27.90;;;;;;5074171;28;20461;-55
2023/07/16 11:42:33;;;;;;;7.03;3.17;;;31.20;29.40;;;;;;5074208;28;20441;-53
2023/07/16 11:44:59;;;;;;;4.30;2.93;;;31.30;29.50;;;;;;5074372;28;20463;-55
2023/07/16 11:47:26;;;;;;;3.90;2.70;;;31.40;28.30;;;;;;5073413;28;20402;-55
2023/07/16 11:49:52;;;;;;;4.63;3.17;;;31.70;28.20;;;;;;5073835;28;20903;-52
2023/07/16 11:52:23;;;;;;;4.53;3.10;;;31.90;28.60;;;;;;5074105;28;20914;-52
2023/07/16 11:54:49;;;;;;;4.03;2.93;;;32.10;27.40;;;;;;5074296;28;20448;-54
2023/07/16 11:57:15;;;;;;;4.10;2.80;;;32.20;27.80;;;;;;5074247;28;20422;-52
2023/07/16 11:59:41;;;;;;;7.63;3.20;;;32.10;27.00;;;;;;5073918;28;20441;-52
2023/07/16 12:02:08;;;;;;;6.57;2.97;;;31.90;26.90;;;;;;5074066;28;20407;-54
2023/07/16 12:04:33;;;;;;;6.77;3.67;;;31.80;28.10;;;;;;5074291;28;20232;-52
2023/07/16 12:06:59;;;;;;;5.60;3.03;;;31.70;27.40;;;;;;5074229;28;20456;-55
2023/07/16 12:09:25;;;;;;;7.83;3.23;;;31.70;27.80;;;;;;5073720;28;20664;-53
2023/07/16 12:11:50;;;;;;;4.30;3.23;;;31.70;28.10;;;;;;5074276;28;20196;-52
2023/07/16 12:14:16;;;;;;;4.67;3.37;;;31.70;27.80;;;;;;5073907;28;20188;-56
2023/07/16 12:16:42;;;;;;;6.00;3.07;;;31.80;28.60;;;;;;5073916;28;20529;-55
2023/07/16 12:19:09;;;;;;;5.13;3.37;;;31.80;27.40;;;;;;5073946;28;20172;-54
2023/07/16 12:21:35;;;;;;;4.03;2.90;;;31.80;26.40;;;;;;5073647;28;20232;-53
2023/07/16 12:24:00;;;;;;;4.80;2.97;;;31.70;27.90;;;;;;5073937;28;20447;-53
2023/07/16 12:26:27;;;;;;;5.00;3.60;;;31.80;28.10;;;;;;5073961;28;20402;-55
2023/07/16 12:28:53;;;;;;;4.07;2.73;;;31.90;29.70;;;;;;5073519;28;20620;-55
2023/07/16 12:31:20;;;;;;;3.80;3.30;;;32.20;30.40;;;;;;5073406;28;20485;-52
2023/07/16 12:33:46;;;;;;;4.13;2.43;;;32.40;29.00;;;;;;5073776;28;20188;-53
2023/07/16 12:36:12;;;;;;;5.83;3.40;;;32.70;28.20;;;;;;5073412;28;20411;-52
2023/07/16 12:38:38;;;;;;;4.83;3.50;;;33.00;27.80;;;;;;5073170;28;20398;-54
2023/07/16 12:41:04;;;;;;;4.00;2.53;;;33.20;28.00;;;;;;5072295;28;20914;-54
2023/07/16 12:43:33;;;;;;;5.20;3.30;;;33.30;26.40;;;;;;5073287;28;20533;-52